Time;durP1;ratioP1;P1;durP2;ratioP2;P2;SDS_P1;SDS_P2;PMS_P1;PMS_P2;Temp;Humidity;BMP_temperature;BMP_pressure;BME280_temperature;BME280_humidity;BME280_pressure;Samples;Min_cycle;Max_cycle;Signal;HPM_P1;HPM_P2
2021/08/03 00:00:06;;;;;;;16.67;4.82;;;;;;;24.51;63.87;97242.50;5075536;28;20162;-89
2021/08/03 00:02:33;;;;;;;18.45;5.32;;;;;;;24.40;64.01;97227.41;5088422;28;20058;-89
2021/08/03 00:04:59;;;;;;;20.90;5.22;;;;;;;24.17;65.02;97223.94;5069875;28;20395;-88
2021/08/03 00:07:26;;;;;;;19.92;5.30;;;;;;;24.16;65.76;97236.75;5072470;28;20025;-88
2021/08/03 00:09:54;;;;;;;23.92;5.38;;;;;;;24.02;66.02;97225.75;5073135;28;20085;-88
2021/08/03 00:12:19;;;;;;;18.73;5.70;;;;;;;23.93;66.94;97227.75;5073392;28;20035;-88
2021/08/03 00:14:51;;;;;;;14.82;5.18;;;;;;;23.87;66.90;97233.91;5071311;28;20024;-88
2021/08/03 00:17:25;;;;;;;11.70;5.78;;;;;;;23.77;67.54;97233.34;5056382;28;20035;-89
2021/08/03 00:19:51;;;;;;;16.63;5.45;;;;;;;23.69;67.85;97227.94;5058454;28;20078;-89
2021/08/03 00:22:17;;;;;;;18.38;5.70;;;;;;;23.71;68.09;97228.63;5064389;28;20056;-89
2021/08/03 00:24:43;;;;;;;14.25;5.50;;;;;;;23.62;68.54;97222.41;5062089;28;20035;-89
2021/08/03 00:27:09;;;;;;;15.05;5.60;;;;;;;23.68;68.31;97229.00;5082613;28;20403;-89
2021/08/03 00:29:35;;;;;;;18.23;5.47;;;;;;;23.74;68.49;97231.84;5064993;28;20108;-89
2021/08/03 00:32:02;;;;;;;19.63;6.25;;;;;;;23.63;68.70;97225.94;5064360;28;20029;-88
2021/08/03 00:34:27;;;;;;;18.98;5.15;;;;;;;23.61;68.95;97230.75;5072668;28;20165;-89
2021/08/03 00:36:54;;;;;;;13.00;4.68;;;;;;;23.61;69.17;97245.25;5072446;28;20093;-89
2021/08/03 00:39:20;;;;;;;11.35;5.28;;;;;;;23.62;68.97;97237.94;5057130;28;20032;-88
2021/08/03 00:41:58;;;;;;;21.17;5.78;;;;;;;23.64;69.12;97239.44;5054843;28;20032;-87
2021/08/03 00:44:41;;;;;;;16.33;5.05;;;;;;;23.65;68.81;97245.75;5063675;28;20020;-88
2021/08/03 00:47:07;;;;;;;13.35;4.75;;;;;;;23.63;69.09;97243.19;5063106;28;20038;-88
2021/08/03 00:49:33;;;;;;;15.25;5.05;;;;;;;23.56;69.57;97244.13;5068132;28;20032;-89
2021/08/03 00:51:58;;;;;;;21.40;5.28;;;;;;;23.48;69.85;97249.63;5066790;28;20054;-88
2021/08/03 00:54:24;;;;;;;13.63;4.93;;;;;;;23.48;69.80;97249.63;5055495;28;20025;-88
2021/08/03 00:56:49;;;;;;;15.25;5.40;;;;;;;23.36;70.29;97232.81;5063089;28;20032;-88
2021/08/03 00:59:15;;;;;;;19.05;4.97;;;;;;;23.34;70.97;97236.75;5081145;28;20028;-88
2021/08/03 01:01:41;;;;;;;16.20;5.70;;;;;;;23.13;71.76;97212.84;5083942;28;20093;-88
2021/08/03 01:04:09;;;;;;;21.35;5.70;;;;;;;23.27;72.22;97247.53;5065850;28;20421;-88
2021/08/03 01:07:03;;;;;;;22.58;6.20;;;;;;;23.13;73.42;97246.44;5063671;28;20023;-88
2021/08/03 01:09:55;;;;;;;18.23;6.15;;;;;;;23.00;73.73;97248.94;5056486;28;20036;-88
2021/08/03 01:12:59;;;;;;;20.15;5.95;;;;;;;22.99;74.40;97255.41;5080831;28;20038;-88
2021/08/03 01:15:49;;;;;;;28.58;6.60;;;;;;;22.94;74.97;97252.38;5078925;28;20457;-89
2021/08/03 01:18:51;;;;;;;25.42;7.10;;;;;;;22.79;75.88;97258.75;5069284;28;20105;-88
2021/08/03 01:21:21;;;;;;;20.83;6.82;;;;;;;22.74;75.69;97255.69;5064372;28;20052;-88
2021/08/03 01:24:19;;;;;;;18.42;6.38;;;;;;;22.62;76.31;97268.84;5069338;28;20025;-89
2021/08/03 01:27:16;;;;;;;22.05;7.20;;;;;;;22.54;76.39;97260.72;5067978;28;20036;-88
2021/08/03 01:29:43;;;;;;;20.55;6.72;;;;;;;22.47;76.72;97248.81;5071040;28;20046;-88
2021/08/03 01:32:10;;;;;;;19.88;6.30;;;;;;;22.41;77.00;97255.81;5055035;28;20415;-89
2021/08/03 01:34:40;;;;;;;17.25;6.43;;;;;;;22.42;77.22;97273.03;5083701;28;20034;-87
2021/08/03 01:37:06;;;;;;;18.80;5.95;;;;;;;22.39;77.35;97287.84;5091215;28;20061;-88
2021/08/03 01:39:35;;;;;;;14.65;5.57;;;;;;;22.33;77.51;97285.84;5083155;28;20115;-88
2021/08/03 01:42:03;;;;;;;21.17;6.00;;;;;;;22.26;77.63;97278.50;5059172;28;20028;-88
2021/08/03 01:44:31;;;;;;;21.23;5.95;;;;;;;22.31;77.38;97293.31;5078507;28;20454;-88
2021/08/03 01:46:58;;;;;;;14.32;5.78;;;;;;;22.36;77.55;97298.25;5062093;28;20467;-88
2021/08/03 01:49:23;;;;;;;20.77;6.47;;;;;;;22.35;77.59;97310.19;5067053;28;20545;-88
2021/08/03 01:51:50;;;;;;;18.23;5.82;;;;;;;22.33;77.82;97304.06;5066797;28;20024;-88
2021/08/03 01:54:17;;;;;;;22.50;6.20;;;;;;;22.37;78.19;97308.13;5058673;28;20025;-89
2021/08/03 01:56:44;;;;;;;20.02;6.40;;;;;;;22.19;78.47;97300.16;5063633;28;20111;-88
2021/08/03 01:59:10;;;;;;;15.93;6.10;;;;;;;;;;5057117;28;20475;-88
2021/08/03 02:01:36;;;;;;;17.20;5.38;;;;;;;22.19;78.68;97300.16;5086462;28;20055;-89
2021/08/03 02:04:03;;;;;;;12.63;5.60;;;;;;;22.11;78.84;97303.75;5070625;28;20052;-88
2021/08/03 02:06:29;;;;;;;11.48;4.80;;;;;;;21.90;80.10;97299.88;5067882;28;20028;-89
2021/08/03 02:08:57;;;;;;;18.70;5.43;;;;;;;21.70;81.24;97291.16;5089906;28;20023;-89
2021/08/03 02:11:29;;;;;;;11.55;4.93;;;;;;;21.62;81.51;97286.53;5079182;28;20400;-88
2021/08/03 02:13:55;;;;;;;11.27;5.38;;;;;;;21.58;83.36;97287.06;5073493;28;20051;-89
2021/08/03 02:16:21;;;;;;;20.77;6.53;;;;;;;21.52;83.88;97290.47;5091485;28;20099;-88
2021/08/03 02:18:47;;;;;;;11.68;5.97;;;;;;;21.53;84.23;97297.63;5066150;28;20102;-89
2021/08/03 02:21:20;;;;;;;24.17;6.30;;;;;;;21.58;84.34;97300.69;5057839;28;20044;-89
2021/08/03 02:23:46;;;;;;;16.30;6.15;;;;;;;21.47;84.88;97290.13;5094934;28;20024;-89
2021/08/03 02:26:12;;;;;;;16.90;6.03;;;;;;;21.51;85.05;97299.66;5077687;28;20031;-88
2021/08/03 02:28:38;;;;;;;23.52;6.75;;;;;;;21.53;84.88;97287.56;5074135;28;20040;-89
2021/08/03 02:31:10;;;;;;;15.02;5.65;;;;;;;21.52;85.32;97301.34;5089249;28;20020;-89
2021/08/03 02:33:37;;;;;;;24.38;7.20;;;;;;;21.51;85.23;97296.91;5075163;28;20020;-89
2021/08/03 02:36:04;;;;;;;23.00;5.95;;;;;;;21.51;85.03;97314.13;5057275;28;20032;-89
2021/08/03 02:38:33;;;;;;;16.20;6.25;;;;;;;21.55;84.89;97318.22;5073563;28;20050;-88
2021/08/03 02:40:59;;;;;;;17.55;6.10;;;;;;;21.49;85.75;97312.59;5065597;28;20068;-89
2021/08/03 02:43:26;;;;;;;26.23;6.90;;;;;;;21.48;85.28;97332.66;5091395;28;20055;-88
2021/08/03 02:45:54;;;;;;;16.55;6.45;;;;;;;21.43;85.31;97315.97;5077047;28;20118;-88
2021/08/03 02:48:21;;;;;;;19.02;5.95;;;;;;;21.54;85.14;97332.84;5077006;28;20476;-89
2021/08/03 02:50:47;;;;;;;17.80;6.78;;;;;;;21.66;85.01;97351.59;5073569;28;20395;-89
2021/08/03 02:53:37;;;;;;;17.15;5.97;;;;;;;21.78;84.06;97356.50;5064774;28;20036;-88
2021/08/03 02:56:08;;;;;;;16.73;5.88;;;;;;;21.79;83.66;97354.63;5079711;28;20059;-88
2021/08/03 02:58:41;;;;;;;20.02;6.18;;;;;;;21.81;83.64;97361.59;5059069;28;20020;-89
2021/08/03 03:01:08;;;;;;;12.45;5.72;;;;;;;21.82;83.10;97368.75;5072126;28;20147;-88
2021/08/03 03:03:35;;;;;;;16.92;5.85;;;;;;;21.91;82.75;97373.22;5075016;28;20483;-89
2021/08/03 03:06:03;;;;;;;15.95;5.45;;;;;;;21.83;82.30;97351.41;5057484;28;20059;-89
2021/08/03 03:08:30;;;;;;;14.90;5.22;;;;;;;21.98;81.82;97376.97;5065215;28;20028;-88
2021/08/03 03:10:58;;;;;;;19.08;6.95;;;;;;;21.93;82.08;97360.28;5081245;28;20046;-88
2021/08/03 03:13:41;;;;;;;12.50;5.53;;;;;;;21.86;82.48;97355.66;5064387;28;20411;-88
2021/08/03 03:16:07;;;;;;;16.10;6.35;;;;;;;21.84;82.44;97361.25;5056891;28;20081;-89
2021/08/03 03:18:33;;;;;;;19.25;6.07;;;;;;;21.82;83.30;97376.94;5066003;28;20039;-88
2021/08/03 03:21:01;;;;;;;14.73;6.28;;;;;;;21.70;82.92;97374.72;5071712;28;20029;-89
2021/08/03 03:23:31;;;;;;;16.80;6.43;;;;;;;21.60;83.57;97369.41;5064445;28;20031;-88
2021/08/03 03:25:57;;;;;;;18.67;6.45;;;;;;;21.62;83.55;97389.19;5093260;28;20024;-89
2021/08/03 03:28:27;;;;;;;20.80;6.88;;;;;;;21.57;83.00;97384.22;5076703;28;20027;-88
2021/08/03 03:30:53;;;;;;;17.73;6.93;;;;;;;21.42;83.96;97391.34;5068333;28;20073;-88
2021/08/03 03:33:19;;;;;;;25.52;7.88;;;;;;;21.33;84.83;97388.75;5068348;28;20122;-89
2021/08/03 03:35:46;;;;;;;25.10;7.70;;;;;;;21.14;85.34;97364.53;5073105;28;20108;-89
2021/08/03 03:38:17;;;;;;;31.48;7.32;;;;;;;21.17;85.84;97395.00;5064389;28;20036;-89
2021/08/03 03:40:46;;;;;;;32.22;7.93;;;;;;;21.15;86.17;97393.47;5074716;28;20039;-89
2021/08/03 03:43:12;;;;;;;22.73;7.13;;;;;;;21.16;86.21;97403.34;5061466;28;20491;-88
2021/08/03 03:45:38;;;;;;;24.48;6.70;;;;;;;21.13;86.29;97403.66;5074134;28;20039;-88
2021/08/03 03:48:07;;;;;;;21.83;6.72;;;;;;;21.16;86.35;97406.06;5072087;28;20058;-89
2021/08/03 03:50:53;;;;;;;27.70;6.88;;;;;;;21.14;86.63;97408.91;5058310;28;20036;-89
2021/08/03 03:53:21;;;;;;;24.45;6.85;;;;;;;21.31;85.66;97407.13;5071528;28;20124;-89
2021/08/03 03:56:02;;;;;;;26.33;7.22;;;;;;;21.33;85.29;97397.78;5066014;28;20032;-89
2021/08/03 03:58:34;;;;;;;17.13;6.70;;;;;;;21.42;84.86;97399.50;5084704;28;20399;-89
2021/08/03 04:00:59;;;;;;;;;;;;;;;21.58;84.16;97406.84;5074361;28;20028;-88
2021/08/03 04:03:26;;;;;;;29.17;7.82;;;;;;;21.62;83.86;97410.97;5088825;28;19916;-89
2021/08/03 04:05:53;;;;;;;34.13;7.80;;;;;;;21.72;83.31;97417.09;5075168;28;20479;-88
2021/08/03 04:08:19;;;;;;;25.13;10.88;;;;;;;21.75;83.04;97410.47;5060648;28;20483;-88
2021/08/03 04:10:45;;;;;;;26.33;10.05;;;;;;;21.77;82.58;97405.69;5073011;28;20028;-89
2021/08/03 04:13:11;;;;;;;24.10;9.38;;;;;;;21.97;82.22;97421.59;5067007;28;20103;-89
2021/08/03 04:15:37;;;;;;;22.77;7.75;;;;;;;22.00;81.72;97420.38;5057805;28;20119;-88
2021/08/03 04:18:03;;;;;;;29.65;9.15;;;;;;;21.98;81.92;97412.41;5055723;28;20062;-89
2021/08/03 04:20:29;;;;;;;29.80;8.35;;;;;;;22.08;81.06;97409.50;5062650;28;20027;-89
2021/08/03 04:22:54;;;;;;;42.55;9.48;;;;;;;22.10;80.49;97405.59;5073817;28;20058;-88
2021/08/03 04:25:20;;;;;;;19.90;8.02;;;;;;;22.40;79.58;97427.72;5077937;28;20062;-89
2021/08/03 04:27:46;;;;;;;30.85;8.15;;;;;;;22.54;78.67;97429.75;5083211;28;20069;-88
2021/08/03 04:30:14;;;;;;;15.18;7.05;;;;;;;22.94;76.36;97426.13;5074923;28;20517;-89
2021/08/03 04:32:40;;;;;;;24.05;7.30;;;;;;;23.63;72.57;97423.47;5065821;28;20025;-89
2021/08/03 04:35:06;;;;;;;15.65;6.57;;;;;;;24.26;69.37;97434.19;5063002;28;20028;-89
2021/08/03 04:37:39;;;;;;;18.85;7.25;;;;;;;23.90;69.82;97424.84;5063664;28;20062;-88
2021/08/03 04:40:06;;;;;;;28.98;8.52;;;;;;;23.48;72.02;97429.84;5062867;28;20115;-88
2021/08/03 04:42:32;;;;;;;23.75;7.85;;;;;;;23.44;72.50;97429.34;5070630;28;20028;-89
2021/08/03 04:44:58;;;;;;;19.70;7.57;;;;;;;23.20;73.76;97422.09;5062974;28;20024;-89
2021/08/03 04:47:24;;;;;;;26.95;7.38;;;;;;;23.29;73.97;97419.38;5069342;28;20527;-89
2021/08/03 04:49:49;;;;;;;24.63;7.32;;;;;;;23.25;74.23;97416.13;5056289;28;20181;-89
2021/08/03 04:52:15;;;;;;;19.13;6.65;;;;;;;23.24;74.46;97417.16;5054470;28;20060;-89
2021/08/03 04:54:40;;;;;;;20.55;7.25;;;;;;;23.28;74.22;97423.97;5062449;28;20024;-88
2021/08/03 04:57:06;;;;;;;28.48;7.05;;;;;;;23.37;73.41;97425.63;5066385;28;20534;-89
2021/08/03 04:59:31;;;;;;;23.63;7.38;;;;;;;23.57;72.74;97429.63;5065855;28;20096;-88
2021/08/03 05:01:57;;;;;;;19.75;7.18;;;;;;;23.50;73.25;97422.34;5066517;28;20028;-91
2021/08/03 05:04:22;;;;;;;30.80;8.27;;;;;;;23.61;73.25;97441.91;5069463;28;20045;-91
2021/08/03 05:06:48;;;;;;;24.15;7.15;;;;;;;23.63;72.80;97436.25;5063913;28;20032;-89
2021/08/03 05:09:14;;;;;;;32.60;7.60;;;;;;;23.79;72.40;97455.31;5066357;28;20032;-91
2021/08/03 05:11:39;;;;;;;17.67;6.38;;;;;;;23.95;71.50;97460.69;5066783;28;20056;-90
2021/08/03 05:14:05;;;;;;;18.00;6.18;;;;;;;24.13;70.91;97458.53;5066595;28;20061;-90
2021/08/03 05:16:30;;;;;;;21.45;6.78;;;;;;;24.21;70.71;97449.41;5066648;28;20039;-90
2021/08/03 05:18:56;;;;;;;30.25;8.52;;;;;;;24.30;70.45;97452.94;5065262;28;20089;-90
2021/08/03 05:21:22;;;;;;;33.70;7.47;;;;;;;24.51;69.28;97464.06;5062865;28;20445;-90
2021/08/03 05:23:47;;;;;;;23.10;6.55;;;;;;;24.52;69.20;97457.53;5062495;28;20127;-90
2021/08/03 05:26:13;;;;;;;24.98;7.35;;;;;;;24.80;68.58;97455.91;5059361;28;20088;-90
2021/08/03 05:28:38;;;;;;;21.23;7.25;;;;;;;24.94;67.15;97463.34;5066960;28;20025;-90
2021/08/03 05:31:04;;;;;;;20.95;6.53;;;;;;;26.71;61.38;97470.19;5065342;28;20028;-90
2021/08/03 05:33:30;;;;;;;23.75;6.65;;;;;;;28.86;53.15;97479.75;5062999;28;20453;-90
2021/08/03 05:35:55;;;;;;;22.27;6.65;;;;;;;30.58;47.76;97487.34;5085160;28;20478;-90
2021/08/03 05:38:21;;;;;;;41.65;7.43;;;;;;;31.47;45.44;97487.91;5078446;28;20089;-91
2021/08/03 05:40:46;;;;;;;35.20;6.45;;;;;;;32.92;42.26;97488.84;5078031;28;20510;-91
2021/08/03 05:43:12;;;;;;;22.40;6.53;;;;;;;34.27;39.45;97479.38;5070708;28;20027;-91
2021/08/03 05:45:38;;;;;;;20.98;6.88;;;;;;;34.25;38.55;97481.53;5071250;28;20024;-92
2021/08/03 05:48:04;;;;;;;16.90;6.32;;;;;;;35.25;36.82;97487.34;5062956;28;20031;-92
2021/08/03 05:50:30;;;;;;;20.75;6.60;;;;;;;35.59;35.90;97482.63;5078582;28;20024;-91
2021/08/03 05:52:55;;;;;;;41.25;6.07;;;;;;;36.29;34.09;97480.84;5087842;28;20020;-91
2021/08/03 05:55:21;;;;;;;12.77;5.75;;;;;;;36.57;33.54;97490.13;5078412;28;20058;-91
2021/08/03 05:57:46;;;;;;;14.45;5.88;;;;;;;34.69;36.49;97494.69;5070348;28;20028;-91
2021/08/03 06:00:13;;;;;;;22.73;5.65;;;;;;;34.59;36.35;97488.91;5060057;28;20020;-91
2021/08/03 06:02:38;;;;;;;48.13;7.25;;;;;;;34.19;37.25;97488.06;5060242;28;20024;-88
2021/08/03 06:05:04;;;;;;;24.63;6.28;;;;;;;34.61;36.65;97502.59;5059371;28;20040;-89
2021/08/03 06:07:38;;;;;;;14.10;5.25;;;;;;;35.26;35.42;97495.44;5073762;28;20032;-90
2021/08/03 06:10:04;;;;;;;19.45;5.35;;;;;;;36.10;34.19;97490.63;5071807;28;20055;-90
2021/08/03 06:12:33;;;;;;;26.98;5.80;;;;;;;36.80;33.41;97496.22;5073372;28;20080;-90
2021/08/03 06:15:01;;;;;;;17.23;4.82;;;;;;;38.08;31.00;97501.81;5067083;28;20023;-90
2021/08/03 06:17:38;;;;;;;22.00;8.38;;;;;;;39.18;29.57;97494.91;5067284;28;20028;-90
2021/08/03 06:20:05;;;;;;;23.77;5.65;;;;;;;39.76;28.58;97502.78;5076118;28;20513;-90
2021/08/03 06:22:36;;;;;;;10.32;4.70;;;;;;;37.20;31.27;97503.31;5065816;28;20392;-89
2021/08/03 06:25:03;;;;;;;17.13;4.80;;;;;;;35.75;33.80;97502.06;5078333;28;20032;-90
2021/08/03 06:27:30;;;;;;;17.65;5.65;;;;;;;37.12;32.37;97506.63;5062790;28;20036;-88
2021/08/03 06:30:00;;;;;;;24.58;9.32;;;;;;;38.59;30.14;97498.13;5095606;28;20415;-90
2021/08/03 06:32:26;;;;;;;19.70;6.32;;;;;;;39.21;29.03;97500.81;5065932;28;20419;-90
2021/08/03 06:34:52;;;;;;;22.13;6.18;;;;;;;39.54;28.60;97494.66;5064642;28;20476;-90
2021/08/03 06:37:18;;;;;;;12.88;4.40;;;;;;;39.79;27.98;97496.63;5068675;28;20027;-89
2021/08/03 06:39:43;;;;;;;24.40;5.90;;;;;;;39.23;28.53;97500.53;5075425;28;20114;-89
2021/08/03 06:42:27;;;;;;;14.95;4.43;;;;;;;39.87;27.94;97498.84;5079450;28;20418;-89
2021/08/03 06:44:59;;;;;;;22.80;7.43;;;;;;;40.71;27.41;97506.44;5078658;28;20499;-88
2021/08/03 06:47:26;;;;;;;29.05;5.47;;;;;;;41.61;25.86;97490.13;5080603;28;20457;-89
2021/08/03 06:49:53;;;;;;;22.35;5.65;;;;;;;41.14;25.63;97502.00;5073788;28;20115;-89
2021/08/03 06:52:19;;;;;;;16.75;4.53;;;;;;;41.34;26.00;97493.44;5064666;28;20024;-90
2021/08/03 06:54:53;;;;;;;19.20;5.43;;;;;;;39.25;28.72;97489.91;5073165;28;20017;-89
2021/08/03 06:57:21;;;;;;;18.00;7.00;;;;;;;38.81;29.18;97487.59;5070977;28;20032;-89
2021/08/03 06:59:53;;;;;;;22.23;6.32;;;;;;;38.50;29.56;97489.44;5073044;28;20029;-89
2021/08/03 07:02:41;;;;;;;13.60;5.18;;;;;;;39.56;27.66;97498.00;5081951;28;20067;-89
2021/08/03 07:05:16;;;;;;;23.60;5.60;;;;;;;39.67;27.83;97498.03;5081706;28;20024;-89
2021/08/03 07:07:44;;;;;;;51.03;19.85;;;;;;;40.83;26.62;97504.13;5068869;28;20408;-90
2021/08/03 07:10:10;;;;;;;26.52;6.72;;;;;;;41.48;25.67;97514.13;5063012;28;20532;-90
2021/08/03 07:12:36;;;;;;;15.30;5.43;;;;;;;41.53;25.34;97500.00;5073424;28;20057;-90
2021/08/03 07:15:02;;;;;;;21.95;5.43;;;;;;;41.18;25.46;97502.25;5072347;28;20024;-89
2021/08/03 07:17:29;;;;;;;12.43;5.53;;;;;;;42.39;24.25;97503.97;5081515;28;20024;-91
2021/08/03 07:19:57;;;;;;;9.90;4.03;;;;;;;42.79;23.66;97506.28;5083266;28;20402;-90
2021/08/03 07:22:24;;;;;;;7.40;3.20;;;;;;;40.54;25.96;97509.63;5064024;28;20040;-90
2021/08/03 07:24:51;;;;;;;8.20;4.05;;;;;;;41.93;24.21;97495.19;5071641;28;20030;-90
2021/08/03 07:27:17;;;;;;;26.98;4.18;;;;;;;41.10;25.05;97515.78;5078934;28;20031;-91
2021/08/03 07:29:42;;;;;;;18.88;4.03;;;;;;;41.39;24.86;97520.66;5067215;28;20625;-90
2021/08/03 07:32:09;;;;;;;11.48;3.63;;;;;;;40.96;25.37;97525.13;5076422;28;20102;-90
2021/08/03 07:34:39;;;;;;;9.50;4.32;;;;;;;41.77;24.33;97517.00;5060840;28;20476;-90
2021/08/03 07:37:06;;;;;;;120.28;9.52;;;;;;;41.33;24.79;97516.19;5069129;28;20028;-91
2021/08/03 07:39:33;;;;;;;13.98;3.97;;;;;;;41.31;25.06;97507.22;5078952;28;20127;-90
2021/08/03 07:42:00;;;;;;;7.72;3.30;;;;;;;42.47;23.71;97509.75;5078486;28;20024;-91
2021/08/03 07:44:25;;;;;;;7.28;3.83;;;;;;;42.27;23.71;97503.53;5078556;28;20028;-90
2021/08/03 07:46:51;;;;;;;13.38;4.20;;;;;;;42.58;23.53;97511.31;5077979;28;20102;-91
2021/08/03 07:49:17;;;;;;;13.73;3.75;;;;;;;43.58;22.63;97507.34;5078135;28;20028;-92
2021/08/03 07:51:43;;;;;;;13.90;4.05;;;;;;;43.93;22.07;97503.94;5072363;28;20059;-91
2021/08/03 07:54:09;;;;;;;15.82;4.10;;;;;;;43.52;22.38;97502.94;5069752;28;20028;-91
2021/08/03 07:56:34;;;;;;;113.70;8.45;;;;;;;42.63;23.19;97502.00;5071073;28;20088;-91
2021/08/03 07:59:01;;;;;;;20.42;3.75;;;;;;;41.82;23.90;97488.81;5078695;28;20028;-91
2021/08/03 08:01:29;;;;;;;12.32;3.67;;;;;;;42.76;22.99;97490.00;5077567;28;20357;-89
2021/08/03 08:03:54;;;;;;;13.20;3.92;;;;;;;43.33;22.84;97496.47;5072145;28;20033;-92
2021/08/03 08:06:20;;;;;;;12.07;3.28;;;;;;;43.56;22.01;97495.56;5069740;28;20077;-92
2021/08/03 08:08:49;;;;;;;13.82;3.35;;;;;;;43.08;22.70;97492.91;5070369;28;20057;-90
2021/08/03 08:11:14;;;;;;;6.45;3.00;;;;;;;43.63;21.84;97473.41;5078477;28;20057;-91
2021/08/03 08:13:40;;;;;;;5.35;3.25;;;;;;;43.75;21.85;97478.59;5058956;28;20099;-90
2021/08/03 08:16:06;;;;;;;10.02;3.10;;;;;;;44.34;21.66;97503.13;5059659;28;20060;-90
2021/08/03 08:18:31;;;;;;;9.85;2.92;;;;;;;43.70;22.04;97476.69;5070643;28;20036;-90
2021/08/03 08:20:57;;;;;;;17.15;3.30;;;;;;;44.29;21.63;97500.44;5063489;28;20105;-91
2021/08/03 08:23:23;;;;;;;11.90;3.50;;;;;;;42.98;22.77;97495.88;5067994;28;20039;-90
2021/08/03 08:25:48;;;;;;;42.35;4.57;;;;;;;42.62;23.59;97491.84;5063435;28;20024;-90
2021/08/03 08:28:15;;;;;;;5.63;3.60;;;;;;;42.41;23.53;97482.81;5060300;28;20052;-91
2021/08/03 08:30:41;;;;;;;12.77;3.45;;;;;;;43.23;22.61;97483.38;5058244;28;20025;-91
2021/08/03 08:33:08;;;;;;;7.82;2.75;;;;;;;44.27;21.84;97486.66;5072770;28;20430;-91
2021/08/03 08:35:35;;;;;;;7.35;3.28;;;;;;;44.05;21.75;97476.06;5077473;28;20114;-91
2021/08/03 08:38:01;;;;;;;12.43;3.90;;;;;;;45.26;21.04;97473.41;5077846;28;20066;-92
2021/08/03 08:40:27;;;;;;;16.27;4.10;;;;;;;45.00;21.20;97463.06;5069131;28;20032;-93
2021/08/03 08:42:53;;;;;;;15.70;3.50;;;;;;;45.19;20.83;97464.53;5077779;28;20032;-91
2021/08/03 08:45:18;;;;;;;7.93;3.75;;;;;;;44.47;21.63;97468.44;5068912;28;20039;-91
2021/08/03 08:47:45;;;;;;;8.63;3.40;;;;;;;43.90;21.79;97442.47;5061901;28;20027;-90
2021/08/03 08:50:32;;;;;;;16.88;4.10;;;;;;;44.40;21.44;97436.97;5069162;28;20028;-92
2021/08/03 08:52:58;;;;;;;328.85;17.30;;;;;;;44.30;21.80;97445.66;5075029;28;20032;-89
2021/08/03 08:55:24;;;;;;;118.95;7.82;;;;;;;44.05;21.88;97442.19;5076430;28;20031;-91
2021/08/03 08:57:51;;;;;;;11.80;3.50;;;;;;;44.73;21.31;97472.41;5059261;28;20029;-91
2021/08/03 09:00:19;;;;;;;32.58;5.07;;;;;;;45.04;20.88;97464.91;5077263;28;20028;-91
2021/08/03 09:02:52;;;;;;;12.90;4.07;;;;;;;43.59;22.44;97463.91;5092953;28;20024;-91
2021/08/03 09:05:30;;;;;;;10.50;4.00;;;;;;;44.46;21.38;97461.09;5065683;28;20035;-91
2021/08/03 09:08:00;;;;;;;7.78;3.60;;;;;;;44.84;21.21;97451.25;5059756;28;20475;-91
2021/08/03 09:10:47;;;;;;;5.13;3.40;;;;;;;45.77;20.50;97432.56;5063737;28;20111;-91
2021/08/03 09:13:18;;;;;;;13.55;4.22;;;;;;;44.65;20.68;97442.06;5082242;28;20301;-91
2021/08/03 09:15:57;;;;;;;11.73;4.43;;;;;;;44.94;20.74;97453.88;5072660;28;20025;-92
2021/08/03 09:18:35;;;;;;;8.27;4.22;;;;;;;44.29;21.49;97458.94;5071297;28;20064;-92
2021/08/03 09:21:01;;;;;;;10.32;3.78;;;;;;;43.50;22.17;97434.78;5074353;28;20023;-90
2021/08/03 09:23:55;;;;;;;13.65;3.90;;;;;;;44.74;21.85;97468.41;5073325;28;20040;-91
2021/08/03 09:26:38;;;;;;;19.38;3.97;;;;;;;44.30;21.87;97451.31;5062494;28;20032;-91
2021/08/03 09:29:13;;;;;;;10.43;3.75;;;;;;;44.94;21.09;97422.78;5086016;28;20043;-92
2021/08/03 09:31:40;;;;;;;7.47;3.90;;;;;;;44.57;22.04;97428.72;5066542;28;20040;-91
2021/08/03 09:34:16;;;;;;;15.50;4.40;;;;;;;44.01;22.23;97432.69;5082878;28;20017;-90
2021/08/03 09:36:47;;;;;;;5.88;3.70;;;;;;;44.38;21.49;97427.97;5066605;28;20032;-92
2021/08/03 09:39:41;;;;;;;10.15;3.75;;;;;;;43.44;22.48;97441.66;5067326;28;20028;-92
2021/08/03 09:42:14;;;;;;;12.25;4.43;;;;;;;44.46;21.35;97438.53;5098110;28;20032;-92
2021/08/03 09:44:52;;;;;;;8.27;3.55;;;;;;;45.32;20.45;97434.56;5078120;28;20051;-92
2021/08/03 09:47:19;;;;;;;7.50;3.95;;;;;;;45.16;20.35;97421.97;5061719;28;20035;-92
2021/08/03 09:49:50;;;;;;;24.10;4.93;;;;;;;45.16;20.43;97419.97;5064226;28;20035;-91
2021/08/03 09:52:19;;;;;;;;;;;;;;;45.66;20.05;97425.47;5073179;28;20028;-92
2021/08/03 09:54:45;;;;;;;7.75;4.20;;;;;;;45.86;19.54;97421.28;5063338;28;19948;-92
2021/08/03 09:57:20;;;;;;;9.27;4.07;;;;;;;45.92;19.64;97420.81;5065565;28;20035;-93
2021/08/03 09:59:49;;;;;;;12.43;4.05;;;;;;;45.94;20.24;97423.31;5095805;28;20412;-93
2021/08/03 10:02:23;;;;;;;6.85;4.00;;;;;;;45.39;20.35;97423.66;5062591;28;20032;-92
2021/08/03 10:04:50;;;;;;;8.20;4.60;;;;;;;45.02;20.62;97407.88;5075493;28;20020;-92
2021/08/03 10:07:16;;;;;;;19.00;5.32;;;;;;;45.70;20.06;97413.22;5067790;28;20021;-92
2021/08/03 10:09:42;;;;;;;9.93;4.95;;;;;;;46.36;19.64;97404.88;5063144;28;20027;-91
2021/08/03 10:12:09;;;;;;;10.65;4.25;;;;;;;47.49;17.95;97401.78;5074545;28;20054;-92
2021/08/03 10:14:34;;;;;;;14.13;4.75;;;;;;;45.96;19.63;97387.91;5061117;28;20029;-91
2021/08/03 10:17:00;;;;;;;17.00;4.95;;;;;;;46.71;18.57;97398.94;5079934;28;20073;-92
2021/08/03 10:19:27;;;;;;;9.15;4.63;;;;;;;46.58;18.45;97376.47;5062975;28;20079;-92
2021/08/03 10:22:22;;;;;;;12.38;4.57;;;;;;;47.18;18.24;97402.84;5059095;28;20048;-90
2021/08/03 10:24:58;;;;;;;14.45;4.68;;;;;;;46.46;18.53;97396.91;5084530;28;20036;-91
2021/08/03 10:27:38;;;;;;;10.13;4.80;;;;;;;46.74;18.23;97384.13;5076698;28;20093;-91
2021/08/03 10:30:05;;;;;;;13.07;4.97;;;;;;;45.46;19.38;97372.31;5092676;28;20480;-92
2021/08/03 10:32:42;;;;;;;29.05;5.97;;;;;;;44.81;19.56;97389.75;5086683;28;20119;-89
2021/08/03 10:35:18;;;;;;;95.85;8.55;;;;;;;44.41;20.24;97385.00;5079787;28;20031;-90
2021/08/03 10:38:12;;;;;;;19.33;5.28;;;;;;;45.65;18.96;97385.06;5096744;28;20032;-93
2021/08/03 10:40:43;;;;;;;10.60;5.13;;;;;;;47.23;17.51;97377.16;5069717;28;20064;-91
2021/08/03 10:43:21;;;;;;;7.43;4.47;;;;;;;47.49;17.61;97373.44;5081057;28;20123;-91
2021/08/03 10:45:49;;;;;;;149.57;9.50;;;;;;;45.89;18.39;97356.41;5087849;28;20560;-91
2021/08/03 10:48:40;;;;;;;67.15;5.53;;;;;;;47.06;17.27;97365.81;5079190;28;20482;-91
2021/08/03 10:51:15;;;;;;;10.00;4.70;;;;;;;46.02;17.83;97352.63;5095693;28;20085;-91
2021/08/03 10:53:52;;;;;;;50.38;5.93;;;;;;;47.02;17.34;97356.31;5087600;28;20035;-90
2021/08/03 10:56:19;;;;;;;12.20;5.60;;;;;;;47.55;16.57;97338.06;5081223;28;20040;-91
2021/08/03 10:58:44;;;;;;;18.52;4.53;;;;;;;47.28;16.79;97342.97;5060205;28;20042;-91
2021/08/03 11:01:10;;;;;;;14.00;4.38;;;;;;;46.67;17.16;97346.13;5090247;28;20032;-91
2021/08/03 11:03:36;;;;;;;11.13;4.00;;;;;;;46.92;17.11;97342.47;5083128;28;20024;-90
2021/08/03 11:06:10;;;;;;;12.50;4.15;;;;;;;47.84;16.60;97349.47;5083617;28;20037;-92
2021/08/03 11:08:47;;;;;;;39.42;5.57;;;;;;;47.33;17.02;97331.44;5084149;28;20031;-89
2021/08/03 11:11:13;;;;;;;9.13;4.25;;;;;;;47.69;16.94;97339.50;5070655;28;20462;-91
2021/08/03 11:13:43;;;;;;;10.93;4.38;;;;;;;48.05;16.59;97319.16;5095406;28;20031;-89
2021/08/03 11:16:21;;;;;;;12.68;3.83;;;;;;;48.91;15.41;97335.63;5069728;28;20074;-91
2021/08/03 11:18:52;;;;;;;13.27;4.30;;;;;;;47.66;16.34;97323.16;5088219;28;20039;-91
2021/08/03 11:21:22;;;;;;;15.98;4.68;;;;;;;47.06;16.59;97331.78;5077896;28;20056;-91
2021/08/03 11:24:11;;;;;;;8.80;4.25;;;;;;;47.83;16.17;97322.25;5060235;28;20507;-90
2021/08/03 11:26:39;;;;;;;8.63;4.28;;;;;;;47.48;16.41;97309.34;5074568;28;20040;-92
2021/08/03 11:29:06;;;;;;;8.52;4.15;;;;;;;48.23;15.46;97320.75;5103493;28;20027;-91
2021/08/03 11:31:42;;;;;;;14.50;3.97;;;;;;;47.58;16.52;97317.53;5094400;28;20031;-91
2021/08/03 11:34:09;;;;;;;10.68;4.25;;;;;;;47.88;16.34;97309.91;5065151;28;20036;-91
2021/08/03 11:36:38;;;;;;;8.57;4.22;;;;;;;48.37;16.04;97314.78;5065173;28;20096;-92